createdAt,value
2022-08-25T00:00:23.286Z,18.83
2022-08-25T00:03:06.817Z,18.81
2022-08-25T00:05:37.273Z,18.87
2022-08-25T00:08:07.633Z,18.89
2022-08-25T00:10:40.756Z,18.90
2022-08-25T00:13:09.631Z,18.89
2022-08-25T00:15:38.550Z,18.85
2022-08-25T00:18:14.788Z,18.89
2022-08-25T00:20:49.345Z,18.92
2022-08-25T00:23:18.139Z,18.94
2022-08-25T00:25:46.281Z,18.95
2022-08-25T00:28:16.857Z,18.96
2022-08-25T00:30:45.267Z,18.97
2022-08-25T00:33:13.301Z,18.93
2022-08-25T00:39:12.184Z,18.91
2022-08-25T00:41:43.615Z,18.88
2022-08-25T00:44:16.550Z,18.84
2022-08-25T00:46:50.588Z,18.86
2022-08-25T00:50:04.721Z,18.83
2022-08-25T00:52:43.809Z,18.80
2022-08-25T00:55:23.217Z,18.78
2022-08-25T00:58:14.688Z,18.77
2022-08-25T01:00:50.944Z,18.79
2022-08-25T01:03:20.768Z,18.79
2022-08-25T01:05:53.928Z,18.82
2022-08-25T01:08:29.128Z,18.82
2022-08-25T01:11:02.602Z,18.83
2022-08-25T01:13:39.226Z,18.78
2022-08-25T01:16:07.667Z,18.77
2022-08-25T01:18:58.408Z,18.78
2022-08-25T01:21:30.802Z,18.79
2022-08-25T01:24:01.569Z,18.78
2022-08-25T01:26:34.757Z,18.80
2022-08-25T01:29:21.365Z,18.81
2022-08-25T01:31:52.712Z,18.80
2022-08-25T01:34:22.130Z,18.79
2022-08-25T01:36:50.697Z,18.79
2022-08-25T01:39:18.597Z,18.78
2022-08-25T01:42:06.502Z,18.76
2022-08-25T01:44:41.884Z,18.81
2022-08-25T01:47:10.264Z,18.89
2022-08-25T01:49:38.163Z,18.95
2022-08-25T01:52:27.994Z,18.92
2022-08-25T01:54:56.242Z,18.97
2022-08-25T01:57:24.679Z,18.96
2022-08-25T01:59:52.254Z,18.98
2022-08-25T02:02:20.231Z,18.98
2022-08-25T02:04:48.810Z,19.00
2022-08-25T02:07:19.323Z,18.97
2022-08-25T02:09:47.255Z,18.94
2022-08-25T02:12:15.515Z,18.94
2022-08-25T02:14:43.768Z,18.90
2022-08-25T02:17:11.896Z,18.92
2022-08-25T02:19:39.609Z,18.93
2022-08-25T02:22:07.415Z,18.92
2022-08-25T02:24:35.334Z,18.90
2022-08-25T02:27:04.287Z,18.95
2022-08-25T02:29:52.798Z,18.94
2022-08-25T02:32:20.672Z,18.87
2022-08-25T02:34:49.338Z,18.93
2022-08-25T02:37:17.171Z,18.88
2022-08-25T02:39:45.186Z,18.94
2022-08-25T02:42:13.689Z,18.88
2022-08-25T02:44:41.478Z,18.87
2022-08-25T02:47:09.810Z,18.90
2022-08-25T02:49:37.951Z,18.91
2022-08-25T02:52:05.674Z,18.88
2022-08-25T02:54:33.679Z,18.85
2022-08-25T02:57:01.268Z,18.90
2022-08-25T02:59:29.097Z,18.92
2022-08-25T03:01:57.064Z,18.99
2022-08-25T03:04:24.760Z,18.94
2022-08-25T03:06:52.303Z,18.95
2022-08-25T03:09:20.096Z,18.94
2022-08-25T03:11:48.056Z,18.98
2022-08-25T03:14:15.804Z,18.96
2022-08-25T03:16:46.354Z,18.93
2022-08-25T03:19:14.640Z,18.97
2022-08-25T03:21:42.384Z,18.98
2022-08-25T03:24:10.287Z,18.92
2022-08-25T03:26:54.318Z,18.90
2022-08-25T03:29:28.307Z,18.90
2022-08-25T03:32:00.411Z,18.86
2022-08-25T03:34:30.295Z,18.88
2022-08-25T03:36:59.275Z,18.86
2022-08-25T03:39:29.057Z,18.90
2022-08-25T03:41:56.937Z,18.87
2022-08-25T03:44:24.588Z,18.94
2022-08-25T03:46:52.704Z,18.88
2022-08-25T03:49:23.984Z,18.88
2022-08-25T03:51:54.899Z,18.86
2022-08-25T03:54:25.659Z,18.82
2022-08-25T03:56:54.273Z,18.78
2022-08-25T03:59:22.129Z,18.81
2022-08-25T04:01:55.069Z,18.82
2022-08-25T04:04:23.727Z,18.83
2022-08-25T04:06:51.714Z,18.92
2022-08-25T04:09:19.902Z,18.95
2022-08-25T04:11:47.622Z,18.97
2022-08-25T04:14:21.650Z,19.02
2022-08-25T04:16:50.024Z,19.04
2022-08-25T04:19:17.928Z,19.05
2022-08-25T04:21:46.286Z,19.03
2022-08-25T04:24:14.766Z,18.97
2022-08-25T04:26:50.897Z,19.00
2022-08-25T04:29:24.013Z,19.02
2022-08-25T04:31:54.144Z,19.00
2022-08-25T04:34:30.365Z,19.08
2022-08-25T04:37:03.732Z,19.12
2022-08-25T04:39:32.061Z,19.15
2022-08-25T04:42:01.133Z,19.19
2022-08-25T04:44:30.667Z,19.20
2022-08-25T04:47:00.144Z,19.27
2022-08-25T04:49:28.870Z,19.31
2022-08-25T04:51:57.657Z,19.36
2022-08-25T04:54:26.006Z,19.37
2022-08-25T04:56:58.158Z,19.49
2022-08-25T04:59:29.485Z,19.48
2022-08-25T05:02:02.806Z,19.47
2022-08-25T05:04:32.784Z,19.54
2022-08-25T05:07:01.588Z,19.57
2022-08-25T05:09:32.450Z,19.75
2022-08-25T05:12:05.132Z,19.75
2022-08-25T05:14:34.284Z,19.70
2022-08-25T05:17:02.541Z,19.65
2022-08-25T05:19:30.886Z,19.65
2022-08-25T05:21:58.761Z,19.72
2022-08-25T05:24:28.306Z,19.67
2022-08-25T05:26:57.191Z,19.72
2022-08-25T05:29:24.956Z,19.71
2022-08-25T05:31:54.446Z,19.77
2022-08-25T05:34:22.403Z,19.76
2022-08-25T05:36:50.126Z,19.74
2022-08-25T05:39:18.166Z,19.80
2022-08-25T05:41:45.843Z,19.79
2022-08-25T05:44:15.111Z,19.88
2022-08-25T05:46:45.770Z,19.98
2022-08-25T05:49:13.347Z,20.09
2022-08-25T05:51:41.103Z,20.09
2022-08-25T05:54:09.047Z,20.09
2022-08-25T05:56:37.272Z,20.05
2022-08-25T05:59:09.240Z,20.22
2022-08-25T06:01:56.320Z,20.44
2022-08-25T06:04:24.503Z,20.58
2022-08-25T06:06:54.899Z,20.55
2022-08-25T06:09:23.371Z,20.64
2022-08-25T06:11:54.648Z,20.55
2022-08-25T06:14:24.962Z,20.56
2022-08-25T06:16:53.267Z,20.62
2022-08-25T06:19:23.529Z,20.61
2022-08-25T06:21:56.383Z,20.58
2022-08-25T06:24:26.880Z,20.68
2022-08-25T06:26:56.214Z,20.68
2022-08-25T06:29:24.417Z,20.74
2022-08-25T06:31:52.735Z,20.93
2022-08-25T06:34:23.830Z,20.80
2022-08-25T06:36:52.244Z,20.87
2022-08-25T06:39:20.169Z,20.90
2022-08-25T06:41:56.594Z,20.83
2022-08-25T06:44:30.494Z,20.71
2022-08-25T06:46:58.522Z,20.68
2022-08-25T06:49:31.834Z,20.65
2022-08-25T06:52:02.508Z,20.65
2022-08-25T06:54:30.333Z,20.68
2022-08-25T06:56:58.212Z,20.71
2022-08-25T06:59:29.600Z,20.88
2022-08-25T07:02:03.660Z,20.98
2022-08-25T07:04:34.534Z,21.08
2022-08-25T07:07:04.224Z,21.16
2022-08-25T07:09:35.210Z,21.27
2022-08-25T07:12:06.070Z,21.34
2022-08-25T07:14:33.986Z,21.43
2022-08-25T07:17:10.556Z,21.58
2022-08-25T07:19:40.940Z,21.82
2022-08-25T07:22:09.350Z,21.76
2022-08-25T07:24:37.201Z,21.56
2022-08-25T07:27:05.516Z,21.48
2022-08-25T07:29:36.814Z,21.38
2022-08-25T07:32:10.318Z,21.40
2022-08-25T07:34:56.742Z,21.30
2022-08-25T07:37:48.173Z,21.26
2022-08-25T07:40:21.313Z,21.51
2022-08-25T07:42:52.767Z,21.65
2022-08-25T07:45:25.532Z,21.88
2022-08-25T07:47:53.956Z,22.10
2022-08-25T07:50:23.235Z,22.20
2022-08-25T07:52:55.302Z,22.17
2022-08-25T07:55:30.582Z,21.94
2022-08-25T07:57:59.944Z,22.02
2022-08-25T08:00:30.322Z,21.91
2022-08-25T08:02:59.467Z,22.26
2022-08-25T08:05:28.737Z,22.01
2022-08-25T08:07:57.725Z,22.14
2022-08-25T08:10:53.493Z,21.64
2022-08-25T08:13:18.800Z,22.03
2022-08-25T08:15:48.525Z,21.96
2022-08-25T08:18:17.155Z,21.92
2022-08-25T08:20:49.151Z,21.72
2022-08-25T08:23:17.869Z,21.90
2022-08-25T08:25:45.902Z,21.86
2022-08-25T08:28:13.688Z,21.68
2022-08-25T08:30:52.973Z,21.81
2022-08-25T08:33:24.347Z,21.88
2022-08-25T08:36:05.189Z,21.92
2022-08-25T08:38:35.957Z,22.29
2022-08-25T08:41:23.392Z,22.08
2022-08-25T08:44:08.083Z,21.82
2022-08-25T08:47:20.349Z,21.73
2022-08-25T08:50:04.020Z,21.68
2022-08-25T08:53:22.579Z,21.21
2022-08-25T08:55:57.450Z,21.20
2022-08-25T08:58:51.271Z,21.25
2022-08-25T09:02:00.701Z,21.20
2022-08-25T09:04:42.832Z,21.31
2022-08-25T09:07:28.260Z,21.37
2022-08-25T09:09:57.531Z,21.28
2022-08-25T09:13:04.340Z,21.04
2022-08-25T09:16:31.923Z,20.61
2022-08-25T09:19:24.994Z,20.71
2022-08-25T09:21:58.250Z,20.73
2022-08-25T09:24:50.411Z,20.72
2022-08-25T09:27:44.334Z,20.74
2022-08-25T09:30:17.825Z,20.72
2022-08-25T09:32:52.506Z,20.70
2022-08-25T09:35:27.805Z,20.71
2022-08-25T09:38:09.811Z,20.48
2022-08-25T09:40:44.363Z,20.51
2022-08-25T09:43:27.352Z,20.48
2022-08-25T09:46:15.159Z,20.63
2022-08-25T09:48:46.494Z,20.75
2022-08-25T09:51:28.518Z,21.02
2022-08-25T09:54:10.450Z,20.43
2022-08-25T09:56:52.285Z,20.90
2022-08-25T09:59:35.053Z,21.03
2022-08-25T10:02:42.807Z,21.04
2022-08-25T10:06:00.106Z,20.85
2022-08-25T10:08:41.144Z,21.04
2022-08-25T10:11:15.313Z,21.23
2022-08-25T10:13:47.906Z,21.00
2022-08-25T10:16:35.725Z,21.23
2022-08-25T10:19:09.184Z,21.02
2022-08-25T10:21:41.005Z,21.04
2022-08-25T10:24:14.056Z,20.95
2022-08-25T10:27:14.413Z,21.22
2022-08-25T10:30:04.353Z,21.37
2022-08-25T10:33:09.801Z,21.49
2022-08-25T10:36:06.666Z,21.53
2022-08-25T10:38:45.389Z,21.42
2022-08-25T10:41:44.094Z,21.78
2022-08-25T10:44:51.943Z,21.81
2022-08-25T10:48:22.493Z,21.46
2022-08-25T10:51:18.815Z,21.92
2022-08-25T10:54:17.888Z,21.80
2022-08-25T10:57:38.266Z,21.85
2022-08-25T11:00:17.863Z,21.71
2022-08-25T11:03:18.997Z,21.81
2022-08-25T11:06:03.675Z,21.91
2022-08-25T11:08:51.985Z,22.06
2022-08-25T11:11:35.013Z,22.16
2022-08-25T11:14:18.058Z,21.94
2022-08-25T11:17:03.830Z,22.51
2022-08-25T11:19:38.596Z,22.54
2022-08-25T11:22:30.113Z,22.88
2022-08-25T11:25:13.004Z,22.54
2022-08-25T11:27:59.380Z,22.72
2022-08-25T11:30:29.111Z,22.58
2022-08-25T11:32:57.713Z,23.00
2022-08-25T11:35:42.571Z,22.89
2022-08-25T11:38:53.060Z,22.94
2022-08-25T11:41:42.399Z,23.05
2022-08-25T11:44:33.762Z,23.43
2022-08-25T11:47:23.539Z,23.04
2022-08-25T11:50:09.769Z,22.66
2022-08-25T11:52:49.260Z,23.04
2022-08-25T11:55:39.127Z,23.68
2022-08-25T11:58:40.996Z,23.40
2022-08-25T12:01:35.062Z,23.20
2022-08-25T12:04:34.126Z,23.43
2022-08-25T12:07:10.695Z,23.40
2022-08-25T12:09:50.541Z,25.15
2022-08-25T12:12:45.512Z,23.84
2022-08-25T12:15:23.749Z,23.29
2022-08-25T12:18:21.999Z,23.27
2022-08-25T12:20:56.351Z,23.34
2022-08-25T12:23:35.334Z,23.41
2022-08-25T12:26:56.492Z,23.27
2022-08-25T12:30:21.003Z,23.54
2022-08-25T12:33:16.330Z,23.10
2022-08-25T12:36:03.615Z,23.77
2022-08-25T12:38:52.316Z,23.93
2022-08-25T12:41:26.237Z,23.41
2022-08-25T12:44:16.035Z,22.90
2022-08-25T12:46:45.063Z,23.78
2022-08-25T12:49:33.262Z,24.49
2022-08-25T12:52:15.208Z,23.33
2022-08-25T12:55:03.863Z,23.04
2022-08-25T12:57:41.154Z,23.43
2022-08-25T13:03:25.354Z,23.47
2022-08-25T13:06:23.105Z,23.36
2022-08-25T13:09:52.506Z,22.72
2022-08-25T13:12:32.202Z,22.45
2022-08-25T13:15:01.396Z,22.44
2022-08-25T13:17:35.100Z,23.40
2022-08-25T13:20:25.621Z,24.02
2022-08-25T13:23:00.796Z,23.50
2022-08-25T13:25:32.092Z,23.58
2022-08-25T13:28:06.485Z,24.02
2022-08-25T13:30:39.419Z,23.27
2022-08-25T13:33:21.927Z,23.28
2022-08-25T13:36:17.993Z,23.48
2022-08-25T13:38:49.488Z,23.87
2022-08-25T13:41:29.576Z,23.39
2022-08-25T13:44:00.852Z,23.13
2022-08-25T13:46:31.798Z,23.66
2022-08-25T13:49:09.148Z,23.39
2022-08-25T13:51:50.740Z,23.43
2022-08-25T13:54:31.566Z,23.41
2022-08-25T13:57:18.411Z,23.27
2022-08-25T13:59:54.605Z,22.92
2022-08-25T14:02:44.163Z,23.84
2022-08-25T14:05:14.754Z,24.05
2022-08-25T14:08:09.215Z,23.21
2022-08-25T14:10:45.399Z,22.83
2022-08-25T14:13:30.917Z,22.90
2022-08-25T14:16:11.000Z,22.99
2022-08-25T14:18:39.715Z,23.41
2022-08-25T14:21:12.294Z,23.10
2022-08-25T14:23:40.561Z,23.65
2022-08-25T14:26:08.413Z,23.90
2022-08-25T14:28:36.382Z,23.80
2022-08-25T14:31:15.384Z,24.10
2022-08-25T14:33:59.542Z,24.09
2022-08-25T14:36:31.712Z,23.60
2022-08-25T14:39:00.712Z,23.88
2022-08-25T14:41:36.205Z,24.09
2022-08-25T14:44:05.967Z,23.32
2022-08-25T14:46:44.697Z,22.71
2022-08-25T14:49:24.870Z,22.49
2022-08-25T14:51:54.166Z,22.36
2022-08-25T14:54:28.195Z,22.24
2022-08-25T14:56:57.522Z,22.21
2022-08-25T14:59:26.146Z,22.24
2022-08-25T15:01:55.715Z,22.62
2022-08-25T15:04:28.719Z,22.86
2022-08-25T15:07:02.876Z,23.18
2022-08-25T15:09:33.736Z,22.99
2022-08-25T15:12:03.583Z,22.58
2022-08-25T15:14:33.875Z,22.42
2022-08-25T15:17:03.512Z,22.21
2022-08-25T15:19:31.565Z,22.15
2022-08-25T15:21:59.536Z,22.10
2022-08-25T15:24:28.899Z,22.11
2022-08-25T15:27:04.903Z,21.84
2022-08-25T15:29:35.004Z,21.88
2022-08-25T15:32:07.139Z,21.82
2022-08-25T15:34:36.690Z,21.53
2022-08-25T15:37:15.554Z,21.54
2022-08-25T15:39:46.344Z,21.49
2022-08-25T15:42:16.677Z,21.53
2022-08-25T15:44:53.051Z,21.57
2022-08-25T15:47:24.751Z,21.47
2022-08-25T15:50:25.749Z,21.49
2022-08-25T15:52:54.120Z,21.40
2022-08-25T15:55:22.192Z,21.57
2022-08-25T15:57:50.071Z,21.46
2022-08-25T16:00:21.621Z,21.55
2022-08-25T16:02:50.302Z,21.53
2022-08-25T16:05:21.422Z,21.41
2022-08-25T16:07:54.107Z,21.43
2022-08-25T16:10:22.070Z,21.53
2022-08-25T16:13:39.690Z,21.35
2022-08-25T16:16:10.982Z,21.39
2022-08-25T16:18:39.541Z,21.42
2022-08-25T16:21:15.168Z,21.35
2022-08-25T16:23:45.545Z,21.13
2022-08-25T16:26:13.943Z,21.19
2022-08-25T16:28:44.220Z,21.20
2022-08-25T16:31:17.258Z,21.14
2022-08-25T16:33:46.309Z,21.22
2022-08-25T16:36:20.153Z,21.33
2022-08-25T16:38:51.510Z,21.11
2022-08-25T16:41:26.188Z,21.18
2022-08-25T16:43:54.465Z,21.19
2022-08-25T16:46:24.028Z,21.21
2022-08-25T16:48:51.981Z,21.31
2022-08-25T16:51:29.714Z,21.29
2022-08-25T16:54:22.398Z,21.26
2022-08-25T16:56:55.068Z,21.11
2022-08-25T16:59:25.976Z,21.06
2022-08-25T17:01:54.982Z,21.02
2022-08-25T17:04:29.522Z,20.81
2022-08-25T17:07:01.928Z,20.82
2022-08-25T17:09:31.027Z,20.75
2022-08-25T17:11:59.064Z,20.71
2022-08-25T17:14:27.917Z,20.78
2022-08-25T17:16:56.084Z,20.69
2022-08-25T17:19:27.868Z,20.74
2022-08-25T17:21:58.573Z,20.70
2022-08-25T17:24:29.681Z,20.57
2022-08-25T17:27:02.079Z,20.57
2022-08-25T17:29:30.002Z,20.61
2022-08-25T17:31:59.218Z,20.65
2022-08-25T17:34:28.335Z,20.73
2022-08-25T17:36:58.771Z,20.59
2022-08-25T17:39:28.518Z,20.50
2022-08-25T17:41:56.826Z,20.62
2022-08-25T17:44:25.249Z,20.57
2022-08-25T17:46:53.784Z,20.58
2022-08-25T17:49:24.672Z,20.42
2022-08-25T17:51:52.894Z,20.46
2022-08-25T17:54:21.761Z,20.40
2022-08-25T17:56:50.221Z,20.45
2022-08-25T17:59:20.547Z,20.49
2022-08-25T18:01:55.416Z,20.38
2022-08-25T18:04:27.256Z,20.51
2022-08-25T18:06:59.424Z,20.48
2022-08-25T18:09:29.234Z,20.48
2022-08-25T18:11:58.775Z,20.44
2022-08-25T18:14:28.118Z,20.36
2022-08-25T18:16:57.503Z,20.39
2022-08-25T18:19:25.894Z,20.41
2022-08-25T18:21:55.526Z,20.39
2022-08-25T18:24:27.846Z,20.36
2022-08-25T18:26:59.298Z,20.44
2022-08-25T18:29:28.843Z,20.37
2022-08-25T18:32:00.390Z,20.34
2022-08-25T18:34:30.324Z,20.35
2022-08-25T18:37:19.304Z,20.32
2022-08-25T18:40:06.805Z,20.28
2022-08-25T18:42:36.802Z,20.26
2022-08-25T18:45:09.021Z,20.26
2022-08-25T18:47:41.666Z,20.23
2022-08-25T18:50:10.556Z,20.24
2022-08-25T18:52:38.816Z,20.24
2022-08-25T18:55:12.746Z,20.25
2022-08-25T18:57:42.678Z,20.21
2022-08-25T19:00:16.035Z,20.21
2022-08-25T19:02:53.813Z,20.15
2022-08-25T19:05:32.043Z,20.20
2022-08-25T19:08:04.506Z,20.23
2022-08-25T19:10:36.141Z,20.12
2022-08-25T19:13:07.850Z,20.10
2022-08-25T19:15:39.647Z,20.14
2022-08-25T19:18:09.978Z,20.16
2022-08-25T19:20:41.294Z,20.11
2022-08-25T19:23:11.259Z,20.17
2022-08-25T19:25:41.924Z,20.11
2022-08-25T19:28:13.071Z,20.07
2022-08-25T19:30:46.477Z,20.05
2022-08-25T19:33:31.418Z,20.07
2022-08-25T19:36:09.868Z,19.98
2022-08-25T19:38:39.487Z,19.91
2022-08-25T19:41:09.447Z,19.91
2022-08-25T19:43:55.662Z,19.98
2022-08-25T19:46:35.727Z,19.93
2022-08-25T19:49:16.749Z,19.89
2022-08-25T19:51:53.232Z,19.93
2022-08-25T19:54:34.484Z,19.91
2022-08-25T19:57:05.505Z,19.93
2022-08-25T19:59:43.217Z,19.83
2022-08-25T20:02:25.525Z,19.92
2022-08-25T20:05:00.239Z,19.90
2022-08-25T20:07:31.633Z,19.89
2022-08-25T20:10:01.795Z,19.96
2022-08-25T20:12:30.592Z,19.93
2022-08-25T20:14:59.256Z,19.97
2022-08-25T20:17:28.776Z,19.86
2022-08-25T20:20:02.028Z,19.86
2022-08-25T20:22:35.496Z,19.85
2022-08-25T20:25:17.904Z,19.87
2022-08-25T20:27:54.953Z,19.92
2022-08-25T20:30:30.370Z,19.97
2022-08-25T20:33:00.003Z,19.93
2022-08-25T20:35:29.613Z,19.94
2022-08-25T20:38:00.489Z,19.93
2022-08-25T20:40:31.644Z,20.00
2022-08-25T20:43:06.219Z,19.97
2022-08-25T20:45:45.972Z,19.88
2022-08-25T20:48:15.258Z,19.95
2022-08-25T20:50:44.928Z,19.92
2022-08-25T20:53:16.063Z,19.87
2022-08-25T20:55:58.141Z,19.92
2022-08-25T20:58:27.124Z,19.85
2022-08-25T21:00:57.235Z,19.86
2022-08-25T21:03:36.314Z,19.93
2022-08-25T21:06:14.219Z,19.80
2022-08-25T21:08:48.149Z,19.81
2022-08-25T21:11:19.307Z,19.79
2022-08-25T21:13:49.212Z,19.73
2022-08-25T21:16:18.617Z,19.71
2022-08-25T21:18:48.987Z,19.73
2022-08-25T21:21:17.754Z,19.71
2022-08-25T21:23:50.574Z,19.73
2022-08-25T21:26:26.244Z,19.78
2022-08-25T21:28:59.176Z,19.78
2022-08-25T21:31:28.966Z,19.72
2022-08-25T21:33:59.310Z,19.75
2022-08-25T21:36:31.466Z,19.79
2022-08-25T21:39:01.586Z,19.80
2022-08-25T21:41:33.618Z,19.86
2022-08-25T21:44:02.288Z,19.83
2022-08-25T21:46:33.609Z,19.86
2022-08-25T21:49:06.139Z,19.80
2022-08-25T21:51:41.237Z,19.85
2022-08-25T21:54:18.140Z,19.88
2022-08-25T21:56:59.123Z,19.88
2022-08-25T21:59:48.829Z,19.87
2022-08-25T22:02:22.408Z,19.78
2022-08-25T22:04:54.550Z,19.82
2022-08-25T22:07:40.430Z,19.85
2022-08-25T22:10:12.808Z,19.85
2022-08-25T22:12:47.142Z,19.75
2022-08-25T22:15:16.918Z,19.76
2022-08-25T22:17:48.035Z,19.72
2022-08-25T22:20:18.733Z,19.76
2022-08-25T22:22:46.947Z,19.74
2022-08-25T22:25:15.007Z,19.73
2022-08-25T22:27:42.875Z,19.70
2022-08-25T22:30:11.971Z,19.64
2022-08-25T22:32:39.715Z,19.68
2022-08-25T22:35:08.428Z,19.62
2022-08-25T22:37:37.577Z,19.65
2022-08-25T22:40:06.411Z,19.67
2022-08-25T22:42:34.436Z,19.65
2022-08-25T22:45:02.710Z,19.72
2022-08-25T22:47:31.305Z,19.71
2022-08-25T22:49:59.708Z,19.71
2022-08-25T22:52:32.036Z,19.73
2022-08-25T22:55:02.985Z,19.74
2022-08-25T22:57:31.306Z,19.74
2022-08-25T22:59:59.414Z,19.76
2022-08-25T23:02:30.582Z,19.75
2022-08-25T23:05:04.540Z,19.73
2022-08-25T23:07:37.724Z,19.73
2022-08-25T23:10:12.411Z,19.74
2022-08-25T23:12:41.320Z,19.71
2022-08-25T23:15:13.119Z,19.67
2022-08-25T23:17:41.873Z,19.62
2022-08-25T23:20:29.313Z,19.64
2022-08-25T23:22:58.760Z,19.69
2022-08-25T23:25:26.633Z,19.68
2022-08-25T23:27:54.237Z,19.66
2022-08-25T23:30:22.125Z,19.66
2022-08-25T23:32:49.907Z,19.72
2022-08-25T23:35:17.779Z,19.70
2022-08-25T23:37:47.287Z,19.67
2022-08-25T23:40:19.154Z,19.66
2022-08-25T23:42:47.698Z,19.68
2022-08-25T23:45:17.100Z,19.65
2022-08-25T23:47:44.875Z,19.66
2022-08-25T23:50:12.786Z,19.64
2022-08-25T23:52:40.661Z,19.71
2022-08-25T23:55:08.665Z,19.68
2022-08-25T23:57:36.502Z,19.68
